sensor_id;sensor_type;location;lat;lon;timestamp;pressure;altitude;pressure_sealevel;temperature;humidity
55424;BME280;41294;42.666;23.350;2023-03-20T00:29:26;95314.75;;;5.03;87.55
55424;BME280;41294;42.666;23.350;2023-03-20T04:02:00;95276.81;;;3.52;94.25
55424;BME280;41294;42.666;23.350;2023-03-20T04:12:36;95270.53;;;3.49;94.59
55424;BME280;41294;42.666;23.350;2023-03-20T04:47:36;95268.16;;;4.42;91.14
55424;BME280;41294;42.666;23.350;2023-03-20T05:02:52;95291.28;;;6.63;80.98
55424;BME280;41294;42.666;23.350;2023-03-20T05:07:53;95300.13;;;5.62;84.32
55424;BME280;41294;42.666;23.350;2023-03-20T05:10:18;95299.59;;;5.21;85.37
55424;BME280;41294;42.666;23.350;2023-03-20T05:15:19;95298.38;;;5.29;87.07
55424;BME280;41294;42.666;23.350;2023-03-20T05:17:44;95300.13;;;5.36;87.92
55424;BME280;41294;42.666;23.350;2023-03-20T05:20:10;95308.50;;;5.50;86.43
55424;BME280;41294;42.666;23.350;2023-03-20T05:22:35;95309.59;;;5.75;84.76
55424;BME280;41294;42.666;23.350;2023-03-20T05:25:01;95309.19;;;6.03;84.28
55424;BME280;41294;42.666;23.350;2023-03-20T05:27:27;95298.28;;;6.28;84.06
55424;BME280;41294;42.666;23.350;2023-03-20T05:29:52;95306.84;;;6.70;82.37
55424;BME280;41294;42.666;23.350;2023-03-20T05:32:18;95303.66;;;6.98;80.63
55424;BME280;41294;42.666;23.350;2023-03-20T05:34:43;95308.47;;;7.19;79.24
55424;BME280;41294;42.666;23.350;2023-03-20T05:37:09;95308.13;;;7.36;78.65
55424;BME280;41294;42.666;23.350;2023-03-20T05:39:34;95299.84;;;7.54;77.06
55424;BME280;41294;42.666;23.350;2023-03-20T06:28:33;95321.31;;;10.34;62.85
55424;BME280;41294;42.666;23.350;2023-03-20T06:41:16;95305.63;;;12.52;58.33
55424;BME280;41294;42.666;23.350;2023-03-20T07:01:48;95297.91;;;13.34;57.11
55424;BME280;41294;42.666;23.350;2023-03-20T07:24:55;95281.41;;;15.17;51.43
55424;BME280;41294;42.666;23.350;2023-03-20T07:27:21;95269.53;;;13.03;53.11
55424;BME280;41294;42.666;23.350;2023-03-20T07:32:22;95284.66;;;14.08;51.42
55424;BME280;41294;42.666;23.350;2023-03-20T07:34:48;95282.47;;;14.30;50.16
55424;BME280;41294;42.666;23.350;2023-03-20T08:41:54;95277.19;;;16.62;44.35
55424;BME280;41294;42.666;23.350;2023-03-20T08:44:19;95277.31;;;16.99;44.02
55424;BME280;41294;42.666;23.350;2023-03-20T09:41:04;95218.22;;;17.51;41.42
55424;BME280;41294;42.666;23.350;2023-03-20T10:04:11;95175.13;;;18.85;39.16
55424;BME280;41294;42.666;23.350;2023-03-20T10:06:36;95163.56;;;17.55;40.93
55424;BME280;41294;42.666;23.350;2023-03-20T10:09:20;95159.53;;;16.98;42.72
55424;BME280;41294;42.666;23.350;2023-03-20T11:24:45;95063.91;;;20.74;35.29
55424;BME280;41294;42.666;23.350;2023-03-20T15:27:41;94791.25;;;21.07;26.95
55424;BME280;41294;42.666;23.350;2023-03-20T15:30:09;94791.53;;;21.04;27.46
55424;BME280;41294;42.666;23.350;2023-03-20T15:32:39;94784.19;;;21.10;26.49
55424;BME280;41294;42.666;23.350;2023-03-20T15:35:11;94787.63;;;21.05;26.67
55424;BME280;41294;42.666;23.350;2023-03-20T15:37:43;94800.88;;;20.97;26.56
55424;BME280;41294;42.666;23.350;2023-03-20T15:40:29;94792.13;;;20.97;26.95
55424;BME280;41294;42.666;23.350;2023-03-20T15:43:02;94790.97;;;20.92;26.86
55424;BME280;41294;42.666;23.350;2023-03-20T15:45:33;94795.16;;;20.88;26.94
55424;BME280;41294;42.666;23.350;2023-03-20T15:48:07;94790.34;;;20.86;27.49
55424;BME280;41294;42.666;23.350;2023-03-20T15:50:35;94788.47;;;20.76;28.92
55424;BME280;41294;42.666;23.350;2023-03-20T15:53:02;94794.13;;;20.72;28.27
55424;BME280;41294;42.666;23.350;2023-03-20T15:55:28;94787.63;;;20.68;29.00
55424;BME280;41294;42.666;23.350;2023-03-20T15:57:56;94792.66;;;20.53;29.51
55424;BME280;41294;42.666;23.350;2023-03-20T16:00:28;94792.22;;;20.49;30.24
55424;BME280;41294;42.666;23.350;2023-03-20T16:02:54;94794.31;;;20.38;30.85
55424;BME280;41294;42.666;23.350;2023-03-20T16:05:23;94793.50;;;20.24;31.50
55424;BME280;41294;42.666;23.350;2023-03-20T16:07:50;94799.03;;;20.08;32.27
55424;BME280;41294;42.666;23.350;2023-03-20T16:10:31;94806.31;;;20.07;31.96
55424;BME280;41294;42.666;23.350;2023-03-20T16:12:59;94806.19;;;19.94;32.97
55424;BME280;41294;42.666;23.350;2023-03-20T16:15:27;94808.66;;;19.87;33.80
55424;BME280;41294;42.666;23.350;2023-03-20T16:17:58;94808.81;;;19.71;34.71
55424;BME280;41294;42.666;23.350;2023-03-20T16:20:27;94806.91;;;19.66;33.93
55424;BME280;41294;42.666;23.350;2023-03-20T16:22:59;94812.63;;;19.51;34.45
55424;BME280;41294;42.666;23.350;2023-03-20T16:25:26;94808.53;;;19.45;34.84
55424;BME280;41294;42.666;23.350;2023-03-20T16:27:51;94805.22;;;19.33;35.07
55424;BME280;41294;42.666;23.350;2023-03-20T16:30:29;94814.59;;;19.16;36.71
55424;BME280;41294;42.666;23.350;2023-03-20T16:33:00;94818.56;;;18.93;37.09
55424;BME280;41294;42.666;23.350;2023-03-20T16:35:38;94821.63;;;18.68;37.43
55424;BME280;41294;42.666;23.350;2023-03-20T16:38:24;94833.78;;;18.52;39.39
55424;BME280;41294;42.666;23.350;2023-03-20T16:43:39;94831.44;;;18.21;39.15
55424;BME280;41294;42.666;23.350;2023-03-20T16:46:06;94822.72;;;18.26;38.90
55424;BME280;41294;42.666;23.350;2023-03-20T16:48:33;94827.38;;;17.99;39.25
55424;BME280;41294;42.666;23.350;2023-03-20T16:51:16;94822.53;;;17.97;38.61
55424;BME280;41294;42.666;23.350;2023-03-20T16:53:47;94828.13;;;17.77;39.79
55424;BME280;41294;42.666;23.350;2023-03-20T16:56:21;94832.25;;;17.73;40.71
55424;BME280;41294;42.666;23.350;2023-03-20T16:58:46;94826.91;;;17.62;41.18
55424;BME280;41294;42.666;23.350;2023-03-20T17:01:30;94821.13;;;17.58;42.24
55424;BME280;41294;42.666;23.350;2023-03-20T17:04:13;94824.72;;;17.44;42.58
55424;BME280;41294;42.666;23.350;2023-03-20T17:06:45;94821.34;;;17.43;42.39
55424;BME280;41294;42.666;23.350;2023-03-20T17:11:50;94830.47;;;17.21;43.67
55424;BME280;41294;42.666;23.350;2023-03-20T17:14:19;94831.91;;;17.00;44.09
55424;BME280;41294;42.666;23.350;2023-03-20T17:16:45;94836.72;;;16.90;44.46
55424;BME280;41294;42.666;23.350;2023-03-20T17:19:17;94827.50;;;16.80;43.83
55424;BME280;41294;42.666;23.350;2023-03-20T17:21:44;94829.16;;;16.72;43.37
55424;BME280;41294;42.666;23.350;2023-03-20T17:24:10;94824.63;;;16.78;43.23
55424;BME280;41294;42.666;23.350;2023-03-20T17:26:36;94824.81;;;16.64;43.70
55424;BME280;41294;42.666;23.350;2023-03-20T17:29:03;94824.50;;;16.51;45.16
55424;BME280;41294;42.666;23.350;2023-03-20T17:31:28;94827.84;;;16.41;44.94
55424;BME280;41294;42.666;23.350;2023-03-20T17:33:54;94829.56;;;16.44;44.59
55424;BME280;41294;42.666;23.350;2023-03-20T17:36:26;94835.19;;;16.15;46.05
55424;BME280;41294;42.666;23.350;2023-03-20T17:38:53;94842.03;;;15.90;46.95
55424;BME280;41294;42.666;23.350;2023-03-20T17:41:19;94839.06;;;15.77;47.73
55424;BME280;41294;42.666;23.350;2023-03-20T17:43:45;94840.31;;;15.82;47.57
55424;BME280;41294;42.666;23.350;2023-03-20T17:48:48;94845.69;;;15.62;48.25
55424;BME280;41294;42.666;23.350;2023-03-20T17:51:15;94848.25;;;15.51;49.21
55424;BME280;41294;42.666;23.350;2023-03-20T17:53:40;94842.25;;;15.25;49.85
55424;BME280;41294;42.666;23.350;2023-03-20T17:56:13;94862.97;;;15.01;49.94
55424;BME280;41294;42.666;23.350;2023-03-20T17:58:40;94858.97;;;15.11;49.88
55424;BME280;41294;42.666;23.350;2023-03-20T18:01:09;94853.13;;;15.07;50.10
55424;BME280;41294;42.666;23.350;2023-03-20T18:03:35;94865.31;;;15.19;49.18
55424;BME280;41294;42.666;23.350;2023-03-20T18:08:36;94862.44;;;14.97;49.10
55424;BME280;41294;42.666;23.350;2023-03-20T18:11:03;94869.34;;;14.89;50.40
55424;BME280;41294;42.666;23.350;2023-03-20T18:13:28;94872.13;;;14.80;49.67
55424;BME280;41294;42.666;23.350;2023-03-20T18:15:56;94865.72;;;14.87;49.02
55424;BME280;41294;42.666;23.350;2023-03-20T18:18:22;94861.38;;;14.89;48.93
55424;BME280;41294;42.666;23.350;2023-03-20T18:20:48;94865.50;;;14.90;46.83
55424;BME280;41294;42.666;23.350;2023-03-20T18:23:14;94864.44;;;15.02;45.16
55424;BME280;41294;42.666;23.350;2023-03-20T18:25:41;94863.75;;;15.07;45.09
55424;BME280;41294;42.666;23.350;2023-03-20T18:28:11;94862.81;;;15.10;44.61
55424;BME280;41294;42.666;23.350;2023-03-20T18:30:45;94863.53;;;15.11;47.16
55424;BME280;41294;42.666;23.350;2023-03-20T18:33:11;94858.75;;;14.89;49.61
55424;BME280;41294;42.666;23.350;2023-03-20T18:35:36;94867.78;;;14.78;49.87
55424;BME280;41294;42.666;23.350;2023-03-20T18:40:38;94870.63;;;14.54;50.07
55424;BME280;41294;42.666;23.350;2023-03-20T18:43:04;94872.94;;;14.47;50.48
55424;BME280;41294;42.666;23.350;2023-03-20T18:45:30;94873.84;;;14.24;52.08
55424;BME280;41294;42.666;23.350;2023-03-20T18:53:07;94878.28;;;13.98;53.24
55424;BME280;41294;42.666;23.350;2023-03-20T18:58:06;94890.88;;;13.89;54.11
55424;BME280;41294;42.666;23.350;2023-03-20T19:00:37;94889.00;;;13.75;53.63
55424;BME280;41294;42.666;23.350;2023-03-20T19:08:14;94901.66;;;13.85;53.45
55424;BME280;41294;42.666;23.350;2023-03-20T19:21:01;94893.41;;;13.97;52.44
55424;BME280;41294;42.666;23.350;2023-03-20T19:23:27;94894.41;;;14.00;51.45
55424;BME280;41294;42.666;23.350;2023-03-20T19:25:53;94897.44;;;13.93;53.16
55424;BME280;41294;42.666;23.350;2023-03-20T19:28:23;94896.16;;;14.03;53.58
55424;BME280;41294;42.666;23.350;2023-03-20T19:30:50;94900.91;;;13.99;52.87
55424;BME280;41294;42.666;23.350;2023-03-20T19:33:16;94896.91;;;13.89;51.40
55424;BME280;41294;42.666;23.350;2023-03-20T19:35:42;94897.44;;;13.93;50.91
55424;BME280;41294;42.666;23.350;2023-03-20T19:43:13;94907.00;;;14.05;51.11
55424;BME280;41294;42.666;23.350;2023-03-20T19:45:41;94926.53;;;14.07;52.84
55424;BME280;41294;42.666;23.350;2023-03-20T19:48:13;94920.09;;;13.80;54.26
55424;BME280;41294;42.666;23.350;2023-03-20T19:50:39;94922.13;;;13.70;53.27
55424;BME280;41294;42.666;23.350;2023-03-20T19:53:09;94919.81;;;13.78;52.74
55424;BME280;41294;42.666;23.350;2023-03-20T19:55:36;94925.56;;;13.76;53.35
55424;BME280;41294;42.666;23.350;2023-03-20T19:58:02;94920.66;;;13.55;53.49
55424;BME280;41294;42.666;23.350;2023-03-20T20:00:31;94914.75;;;13.60;53.32
55424;BME280;41294;42.666;23.350;2023-03-20T20:02:58;94921.94;;;13.59;53.62
55424;BME280;41294;42.666;23.350;2023-03-20T20:05:28;94920.81;;;13.37;53.56
55424;BME280;41294;42.666;23.350;2023-03-20T20:07:55;94920.19;;;13.42;54.18
55424;BME280;41294;42.666;23.350;2023-03-20T20:10:26;94923.00;;;13.53;55.52
55424;BME280;41294;42.666;23.350;2023-03-20T20:12:52;94920.28;;;13.47;55.86
55424;BME280;41294;42.666;23.350;2023-03-20T20:15:18;94918.75;;;13.41;56.08
55424;BME280;41294;42.666;23.350;2023-03-20T20:17:44;94921.72;;;13.34;56.51
55424;BME280;41294;42.666;23.350;2023-03-20T20:20:11;94923.25;;;13.26;56.14
55424;BME280;41294;42.666;23.350;2023-03-20T20:22:36;94927.09;;;13.25;56.54
55424;BME280;41294;42.666;23.350;2023-03-20T20:25:03;94916.34;;;13.14;56.56
55424;BME280;41294;42.666;23.350;2023-03-20T20:27:30;94917.72;;;13.24;57.37
55424;BME280;41294;42.666;23.350;2023-03-20T20:29:57;94916.09;;;13.26;57.16
55424;BME280;41294;42.666;23.350;2023-03-20T20:32:24;94919.25;;;13.16;56.70
55424;BME280;41294;42.666;23.350;2023-03-20T20:34:50;94919.53;;;13.18;56.74
55424;BME280;41294;42.666;23.350;2023-03-20T20:37:15;94922.44;;;13.20;56.21
55424;BME280;41294;42.666;23.350;2023-03-20T20:39:43;94925.25;;;13.02;56.46
55424;BME280;41294;42.666;23.350;2023-03-20T20:42:09;94924.03;;;12.89;56.02
55424;BME280;41294;42.666;23.350;2023-03-20T20:44:34;94910.72;;;12.74;56.82
55424;BME280;41294;42.666;23.350;2023-03-20T20:47:00;94915.38;;;12.88;56.19
55424;BME280;41294;42.666;23.350;2023-03-20T20:52:02;94915.47;;;12.94;56.86
55424;BME280;41294;42.666;23.350;2023-03-20T20:54:28;94915.97;;;12.83;57.78
55424;BME280;41294;42.666;23.350;2023-03-20T20:56:54;94921.66;;;12.91;57.07
55424;BME280;41294;42.666;23.350;2023-03-20T20:59:20;94926.94;;;12.91;57.58
55424;BME280;41294;42.666;23.350;2023-03-20T21:01:45;94919.88;;;12.88;57.19
55424;BME280;41294;42.666;23.350;2023-03-20T21:04:11;94928.72;;;12.85;56.80
55424;BME280;41294;42.666;23.350;2023-03-20T21:06:37;94928.72;;;12.85;57.09
55424;BME280;41294;42.666;23.350;2023-03-20T21:09:03;94931.63;;;12.87;57.05
55424;BME280;41294;42.666;23.350;2023-03-20T21:11:28;94935.44;;;12.86;57.01
55424;BME280;41294;42.666;23.350;2023-03-20T21:13:54;94933.28;;;12.84;57.41
55424;BME280;41294;42.666;23.350;2023-03-20T21:18:55;94933.44;;;12.81;57.73
55424;BME280;41294;42.666;23.350;2023-03-20T21:21:20;94929.63;;;12.82;58.04
55424;BME280;41294;42.666;23.350;2023-03-20T21:23:46;94925.63;;;12.86;57.59
55424;BME280;41294;42.666;23.350;2023-03-20T21:26:15;94925.81;;;12.83;58.16
55424;BME280;41294;42.666;23.350;2023-03-20T21:28:41;94929.72;;;12.87;57.38
55424;BME280;41294;42.666;23.350;2023-03-20T21:31:07;94928.94;;;12.96;56.35
55424;BME280;41294;42.666;23.350;2023-03-20T21:33:34;94928.09;;;13.13;55.04
55424;BME280;41294;42.666;23.350;2023-03-20T21:36:01;94919.00;;;13.28;54.53
55424;BME280;41294;42.666;23.350;2023-03-20T21:38:28;94913.00;;;13.42;54.28
55424;BME280;41294;42.666;23.350;2023-03-20T21:40:53;94916.44;;;13.48;54.45
55424;BME280;41294;42.666;23.350;2023-03-20T21:43:19;94911.00;;;13.37;54.46
55424;BME280;41294;42.666;23.350;2023-03-20T21:45:44;94904.25;;;13.51;54.35
55424;BME280;41294;42.666;23.350;2023-03-20T21:48:10;94911.34;;;13.45;54.85
55424;BME280;41294;42.666;23.350;2023-03-20T21:50:36;94900.94;;;13.41;55.32
55424;BME280;41294;42.666;23.350;2023-03-20T21:53:02;94896.75;;;13.49;54.63
55424;BME280;41294;42.666;23.350;2023-03-20T21:55:27;94896.66;;;13.58;54.65
55424;BME280;41294;42.666;23.350;2023-03-20T21:57:55;94905.34;;;13.73;54.53
55424;BME280;41294;42.666;23.350;2023-03-20T22:00:20;94901.31;;;13.63;54.97
55424;BME280;41294;42.666;23.350;2023-03-20T22:02:46;94898.84;;;13.74;54.51
55424;BME280;41294;42.666;23.350;2023-03-20T22:05:11;94888.25;;;13.74;54.74
55424;BME280;41294;42.666;23.350;2023-03-20T22:07:37;94898.84;;;13.74;54.79
55424;BME280;41294;42.666;23.350;2023-03-20T22:10:05;94903.88;;;13.72;54.93
55424;BME280;41294;42.666;23.350;2023-03-20T22:12:30;94913.34;;;13.79;54.81
55424;BME280;41294;42.666;23.350;2023-03-20T22:14:57;94905.88;;;13.77;54.94
55424;BME280;41294;42.666;23.350;2023-03-20T22:17:23;94905.16;;;13.77;54.77
55424;BME280;41294;42.666;23.350;2023-03-20T22:19:48;94902.94;;;13.75;55.18
55424;BME280;41294;42.666;23.350;2023-03-20T22:22:14;94897.75;;;13.81;54.69
55424;BME280;41294;42.666;23.350;2023-03-20T22:27:15;94897.09;;;13.86;54.74
55424;BME280;41294;42.666;23.350;2023-03-20T22:29:41;94901.47;;;13.74;55.31
55424;BME280;41294;42.666;23.350;2023-03-20T22:42:28;94887.56;;;14.08;55.69
55424;BME280;41294;42.666;23.350;2023-03-20T22:44:53;94890.78;;;14.12;54.47
55424;BME280;41294;42.666;23.350;2023-03-20T22:54:59;94884.31;;;13.84;56.76
55424;BME280;41294;42.666;23.350;2023-03-20T22:57:25;94882.44;;;13.70;57.07
55424;BME280;41294;42.666;23.350;2023-03-20T22:59:50;94879.78;;;13.56;57.76
55424;BME280;41294;42.666;23.350;2023-03-20T23:02:15;94872.16;;;13.43;58.13
55424;BME280;41294;42.666;23.350;2023-03-20T23:04:41;94876.25;;;13.30;59.09
55424;BME280;41294;42.666;23.350;2023-03-20T23:07:06;94873.97;;;13.37;58.31
55424;BME280;41294;42.666;23.350;2023-03-20T23:09:32;94867.03;;;13.25;59.60
55424;BME280;41294;42.666;23.350;2023-03-20T23:11:57;94858.28;;;13.19;59.34
55424;BME280;41294;42.666;23.350;2023-03-20T23:14:22;94860.38;;;13.15;60.53
55424;BME280;41294;42.666;23.350;2023-03-20T23:16:48;94867.13;;;13.16;59.01
55424;BME280;41294;42.666;23.350;2023-03-20T23:19:14;94863.56;;;13.05;60.45
55424;BME280;41294;42.666;23.350;2023-03-20T23:21:41;94870.50;;;13.03;60.72
55424;BME280;41294;42.666;23.350;2023-03-20T23:24:06;94872.00;;;12.95;60.78
55424;BME280;41294;42.666;23.350;2023-03-20T23:26:32;94861.81;;;13.02;59.94
55424;BME280;41294;42.666;23.350;2023-03-20T23:28:57;94864.63;;;12.99;60.69
55424;BME280;41294;42.666;23.350;2023-03-20T23:31:24;94871.31;;;12.85;60.88
55424;BME280;41294;42.666;23.350;2023-03-20T23:33:52;94858.59;;;12.84;61.01
55424;BME280;41294;42.666;23.350;2023-03-20T23:36:18;94857.81;;;12.69;60.95
55424;BME280;41294;42.666;23.350;2023-03-20T23:38:44;94853.25;;;12.69;61.34
55424;BME280;41294;42.666;23.350;2023-03-20T23:41:10;94849.81;;;12.63;61.34
55424;BME280;41294;42.666;23.350;2023-03-20T23:43:36;94853.72;;;12.68;61.24
55424;BME280;41294;42.666;23.350;2023-03-20T23:46:04;94839.59;;;12.71;61.53
55424;BME280;41294;42.666;23.350;2023-03-20T23:48:31;94852.16;;;12.61;61.48
55424;BME280;41294;42.666;23.350;2023-03-20T23:50:59;94840.34;;;12.71;61.13
55424;BME280;41294;42.666;23.350;2023-03-20T23:53:25;94839.06;;;12.67;61.81
55424;BME280;41294;42.666;23.350;2023-03-20T23:55:53;94833.56;;;12.56;62.39
55424;BME280;41294;42.666;23.350;2023-03-20T23:58:20;94838.72;;;12.50;63.00
